Tiempo atmosférico en la estación meteorológica de Agaete, Las Palmas (5 m.)



Fecha
DESCASC
Temp. máxima en grados centígrados (hora)
DESCASC
Temp. mínima en grados centígrados (hora)
DESCASC
Temp. media en grados centígrados
DESCASC
Racha de viento máxima en m/sg (hora)
DESCASC
Velocidad máxima media en intervalos de 10 minutos(hora)
DESCASC
Precipitaciones diarias en mm
DESCASC
Precipitaciones de 00:00 a 06:00 en mm
DESCASC
Precipitaciones de 06:00 a 12:00 en mm
DESCASC
Precipitaciones de 12:00 a 18:00 en mm
DESCASC
Precipitaciones de 18:00 a 24:00 en mm
DESCASC
29-10-2020 23.9 (12:10) 20.4 (06:20) 22.1 11.11 (14:10) 6.11 (14:20) 0 0 0 0 0
28-10-2020 23.4 (14:00) 20.2 (21:00) 21.8 10.83 (15:10) 6.39 (17:40) 0 0 0 0 0
27-10-2020 24.3 (13:40) 20.9 (00:00) 22.6 13.33 (15:10) 7.22 (14:20) 0 0 0 0 0
26-10-2020 24.6 (13:40) 20.5 (00:00) 22.6 16.11 (10:30) 10 (10:40) 0 0 0 0 0
25-10-2020 23.7 (13:30) 20.5 (00:00) 22.1 18.33 (17:10) 10.28 (01:10) 0 0 0 0 0
24-10-2020 24.1 (15:00) 20.4 (00:00) 22.3 15.56 (12:10) 9.44 (11:50) 0 0 0 0 0
23-10-2020 23.8 (15:40) 19.4 (00:00) 21.6 12.78 (18:20) 7.22 (15:00) 0 0 0 0 0
22-10-2020 23.9 (15:50) 19.4 (00:00) 21.6 8.33 (15:30) 6.67 (08:50) 9.8 6.4 3.4 0 0
21-10-2020 24.7 (10:40) 19.9 (00:00) 22.3 10.28 (19:50) 7.22 (11:10) 7.8 0 0 0 7.8
20-10-2020 28.9 (07:20) 22.9 (00:00) 25.9 21.39 (07:10) 16.11 (12:40) 0 0 0 0 0
19-10-2020 26.9 (17:40) 21.4 (00:00) 24.1 11.11 (12:10) 8.06 (19:50) 0 0 0 0 0
18-10-2020 26.1 (10:40) 20.4 (00:00) 23.3 11.11 (19:10) 8.61 (18:30) 0 0 0 0 0
17-10-2020 25.2 (17:00) 21.4 (00:00) 23.3 9.72 (03:00) 5.56 (10:50) 0 0 0 0 0
16-10-2020 25.9 (14:00) 21.1 (00:00) 23.5 11.94 (17:20) 6.67 (17:40) 0 0 0 0 0
15-10-2020 27.4 (16:10) 20.9 (00:00) 24.1 11.11 (21:10) 6.94 (08:30) 0 0 0 0 0
14-10-2020 27.5 (00:40) 21.6 (00:00) 24.6 12.78 (22:30) 5.28 (19:10) 0 0 0 0 0
13-10-2020 30.7 (01:00) 23.7 (00:00) 27.2 9.72 (19:30) 6.11 (19:30) 0 0 0 0 0
12-10-2020 29.9 (17:40) 22.8 (00:00) 26.3 13.06 (00:10) 6.67 (21:30) 0 0 0 0 0
11-10-2020 25.7 (15:10) 22.4 (00:00) 24.1 16.11 (13:10) 8.33 (12:50) 0 0 0 0 0
10-10-2020 25.5 (16:10) 22.1 (00:00) 23.8 13.33 (13:10) 8.61 (18:20) 0 0 0 0 0
09-10-2020 26.3 (14:20) 22.8 (00:00) 24.5 12.78 (11:50) 8.89 (01:40) 0 0 0 0 0
08-10-2020 28.1 (14:50) 22.7 (00:00) 25.4 10.56 (16:20) 8.61 (16:20) 0 0 0 0 0
07-10-2020 28.5 (16:40) 21.4 (00:00) 24.9 9.44 (00:50) 5.83 (00:50) 0 0 0 0 0
06-10-2020 24.1 (12:10) 21.8 (00:00) 22.9 14.17 (08:50) 8.06 (08:40) 4 0 0 4 0
05-10-2020 26.5 (14:00) 21.8 (00:00) 24.1 15.28 (16:10) 8.61 (13:40) 0 0 0 0 0
04-10-2020 24.8 (17:00) 20.8 (00:00) 22.8 11.39 (13:10) 6.94 (18:30) 4.8 3.4 1.2 0.2 0
03-10-2020 24.6 (15:20) 20.6 (00:00) 22.6 10.83 (08:50) 6.11 (11:10) 2 0 0.6 1.4 0
02-10-2020 25.5 (14:30) 20.8 (00:00) 23.1 12.22 (18:50) 6.39 (01:40) 1.2 0.4 0 0 0.8
01-10-2020 26 (16:10) 22 (00:00) 24 13.33 (23:10) 7.22 (14:20) 0 0 0 0 0

Gráficas

Temp. máximas Temp. mínimas Temp. medias Precipitaciones Rachas de viento máximas Velocidades máximas media en intervalos de 10 minutos

Datos horarios

Fecha y hora oficial Temperatura (ºC) Velocidad del viento (km/h) Dirección del viento Racha (km/h) Dirección de racha Precipitación (mm) Presión (hPa) Tendencia (hPa) Humedad (%)
2020-10-30 23:00:00 20.5 5 Sudeste 13 Sur 0 -- -- 70
2020-10-30 22:00:00 22.5 9 Sudeste 25 Este 0 -- -- 73
2020-10-30 21:00:00 21.8 3 Este 10 Nordeste 0 -- -- 81
2020-10-30 20:00:00 21.9 8 Norte 11 Norte 0 -- -- 82
2020-10-30 19:00:00 22.5 7 Norte 25 Norte 0 -- -- 82
2020-10-30 18:00:00 22.7 18 Norte 26 Norte 0 -- -- 81
2020-10-30 17:00:00 23.9 15 Norte 31 Norte 0 -- -- 75
2020-10-30 16:00:00 24.7 12 Nordeste 33 Norte 0 -- -- 70
2020-10-30 15:00:00 23.5 21 Norte 34 Norte 0 -- -- 76
2020-10-30 14:00:00 23.6 20 Norte 33 Norte 0 -- -- 73
2020-10-30 13:00:00 23.6 21 Norte 33 Norte 0 -- -- 74
2020-10-30 12:00:00 23 24 Norte 37 Norte 0 -- -- 75
2020-10-30 11:00:00 23.4 24 Norte 34 Norte 0 -- -- 72
2020-10-30 10:00:00 23.8 16 Nordeste 31 Nordeste 0 -- -- 67
2020-10-30 09:00:00 23 11 Nordeste 24 Norte 0 -- -- 71
2020-10-30 08:00:00 21.4 14 Nordeste 23 Nordeste 0 -- -- 76
2020-10-30 07:00:00 21.3 14 Nordeste 22 Nordeste 0 -- -- 76
2020-10-30 06:00:00 21.1 13 Nordeste 21 Nordeste 0 -- -- 75
2020-10-30 05:00:00 20.7 11 Nordeste 21 Nordeste 0 -- -- 75
2020-10-30 04:00:00 20.8 11 Nordeste 31 Nordeste 0 -- -- 74
2020-10-30 03:00:00 21.5 13 Nordeste 24 Nordeste 0 -- -- 73
2020-10-30 02:00:00 21.5 13 Nordeste 25 Este 0 -- -- 71
2020-10-30 01:00:00 21.5 15 Nordeste 25 Nordeste 0 -- -- 73
2020-10-30 00:00:00 21.6 12 Nordeste 21 Nordeste 0 -- -- 72
2020-10-29 23:00:00 21.5 10 Nordeste 21 Nordeste 0 -- -- 70
2020-10-29 22:00:00 21.2 11 Nordeste 23 Nordeste 0 -- -- 73
2020-10-29 21:00:00 21.5 15 Nordeste 27 Nordeste 0 -- -- 72
2020-10-29 20:00:00 21.7 13 Nordeste 27 Nordeste 0 -- -- 71
2020-10-29 19:00:00 21.9 15 Nordeste 26 Norte 0 -- -- 72
2020-10-29 18:00:00 22.1 16 Nordeste 34 Nordeste 0 -- -- 69
2020-10-29 17:00:00 22.8 19 Norte 35 Norte 0 -- -- 66
2020-10-29 16:00:00 23.9 15 Nordeste 30 Norte 0 -- -- 58
2020-10-29 15:00:00 23 20 Norte 40 Norte 0 -- -- 61
2020-10-29 14:00:00 22.7 21 Norte 35 Norte 0 -- -- 63
2020-10-29 13:00:00 23 18 Norte 30 Nordeste 0 -- -- 63
2020-10-29 12:00:00 23.3 16 Nordeste 33 Este 0 -- -- 58
2020-10-29 11:00:00 22.2 15 Nordeste 33 Nordeste 0 -- -- 63
2020-10-29 10:00:00 22.2 14 Nordeste 32 Nordeste 0 -- -- 61
2020-10-29 09:00:00 21.8 14 Nordeste 25 Nordeste 0 -- -- 58
2020-10-29 08:00:00 21.2 10 Nordeste 22 Nordeste 0 -- -- 65
2020-10-29 07:00:00 20.7 14 Nordeste 26 Nordeste 0 -- -- 69
2020-10-29 06:00:00 20.5 16 Nordeste 30 Nordeste 0 -- -- 71
2020-10-29 05:00:00 21 12 Nordeste 26 Este 0 -- -- 67
2020-10-29 04:00:00 20.8 12 Este 27 Nordeste 0 -- -- 67
2020-10-29 03:00:00 20.9 11 Nordeste 24 Nordeste 0 -- -- 67
2020-10-29 02:00:00 21.1 13 Nordeste 27 Nordeste 0 -- -- 62
2020-10-29 01:00:00 20.9 11 Este 30 Nordeste 0 -- -- 64
2020-10-29 00:00:00 21.3 14 Nordeste 29 Nordeste 0 -- -- 63
2020-10-28 23:00:00 21.2 12 Nordeste 24 Nordeste 0 -- -- 64
2020-10-28 22:00:00 20.9 12 Nordeste 28 Nordeste 0 -- -- 67
2020-10-28 21:00:00 20.2 15 Nordeste 35 Nordeste 0 -- -- 72
2020-10-28 20:00:00 21.5 19 Nordeste 34 Nordeste 0 -- -- 62
2020-10-28 19:00:00 21.6 18 Nordeste 33 Nordeste 0 -- -- 58
2020-10-28 18:00:00 22.1 20 Nordeste 36 Nordeste 0 -- -- 58
2020-10-28 17:00:00 22.2 19 Nordeste 35 Nordeste 0 -- -- 60
2020-10-28 16:00:00 22.8 16 Nordeste 39 Este 0 -- -- 56
2020-10-28 15:00:00 22.9 16 Nordeste 34 Norte 0 -- -- 55
2020-10-28 14:00:00 23.4 18 Nordeste 33 Nordeste 0 -- -- 54
2020-10-28 13:00:00 22.2 18 Nordeste 32 Nordeste 0 -- -- 57
2020-10-28 12:00:00 22 17 Nordeste 39 Nordeste 0 -- -- 58
2020-10-28 11:00:00 21.2 20 Nordeste 35 Nordeste 0 -- -- 66
2020-10-28 10:00:00 21.9 14 Nordeste 26 Este 0 -- -- 59
2020-10-28 09:00:00 20.8 15 Este 29 Nordeste 0 -- -- 65
2020-10-28 08:00:00 20.7 15 Nordeste 27 Nordeste 0 -- -- 68
2020-10-28 07:00:00 21.1 11 Nordeste 26 Nordeste 0 -- -- 56
2020-10-28 06:00:00 21.1 14 Nordeste 26 Nordeste 0 -- -- 58
2020-10-28 05:00:00 21.1 13 Nordeste 23 Este 0 -- -- 58
2020-10-28 04:00:00 21 10 Nordeste 30 Nordeste 0 -- -- 59
2020-10-28 03:00:00 20.9 15 Nordeste 28 Nordeste 0 -- -- 61
2020-10-28 02:00:00 21.3 14 Nordeste 32 Nordeste 0 -- -- 58
2020-10-28 01:00:00 21.3 16 Nordeste 27 Nordeste 0 -- -- 62
2020-10-28 00:00:00 21.4 12 Nordeste 26 Nordeste 0 -- -- 60
2020-10-27 23:00:00 21.5 18 Nordeste 36 Nordeste 0 -- -- 61
2020-10-27 22:00:00 21.6 17 Nordeste 31 Nordeste 0 -- -- 64
2020-10-27 21:00:00 21.6 13 Nordeste 30 Nordeste 0 -- -- 62
2020-10-27 20:00:00 21.6 18 Nordeste 36 Nordeste 0 -- -- 69
2020-10-27 19:00:00 21.8 20 Nordeste 37 Nordeste 0 -- -- 66
2020-10-27 18:00:00 22.1 21 Nordeste 42 Nordeste 0 -- -- 67
2020-10-27 17:00:00 22.8 22 Nordeste 35 Nordeste 0 -- -- 62
2020-10-27 16:00:00 23.3 20 Nordeste 48 Norte 0 -- -- 60
2020-10-27 15:00:00 24.1 21 Nordeste 42 Nordeste 0 -- -- 60
2020-10-27 14:00:00 23.9 23 Nordeste 41 Nordeste 0 -- -- 58
2020-10-27 13:00:00 24 19 Norte 39 Nordeste 0 -- -- 54
2020-10-27 12:00:00 23.3 21 Nordeste 39 Nordeste 0 -- -- 59
2020-10-27 11:00:00 22.7 22 Nordeste 38 Nordeste 0 -- -- 66
2020-10-27 10:00:00 22.3 22 Nordeste 37 Nordeste 0 -- -- 68
2020-10-27 09:00:00 23 16 Nordeste 33 Este 0 -- -- 63
2020-10-27 08:00:00 22.3 15 Nordeste 27 Nordeste 0 -- -- 60
2020-10-27 07:00:00 21.8 15 Este 35 Este 0 -- -- 57
2020-10-27 06:00:00 21.3 10 Nordeste 30 Nordeste 0 -- -- 61
2020-10-27 05:00:00 21.4 18 Nordeste 39 Nordeste 0 -- -- 67
2020-10-27 04:00:00 21.3 15 Nordeste 30 Nordeste 0 -- -- 64
2020-10-27 03:00:00 21.1 14 Nordeste 32 Nordeste 0 -- -- 71
2020-10-27 02:00:00 21.3 18 Nordeste 32 Nordeste 0 -- -- 69
2020-10-27 01:00:00 21.7 13 Nordeste 35 Nordeste 0 -- -- 64
2020-10-27 00:00:00 21.8 13 Nordeste 38 Nordeste 0 -- -- 61
2020-10-26 23:00:00 21.7 17 Nordeste 37 Nordeste 0 -- -- 62
2020-10-26 22:00:00 22.1 21 Nordeste 38 Nordeste 0 -- -- 61
2020-10-26 21:00:00 21.6 19 Nordeste 38 Nordeste 0 -- -- 65
2020-10-26 20:00:00 21.8 22 Nordeste 44 Nordeste 0 -- -- 64
2020-10-26 19:00:00 21.8 19 Nordeste 44 Nordeste 0 -- -- 65
2020-10-26 18:00:00 22.5 23 Nordeste 50 Nordeste 0 -- -- 61
2020-10-26 17:00:00 23.2 31 Nordeste 54 Nordeste 0 -- -- 59
2020-10-26 16:00:00 23.7 29 Nordeste 54 Nordeste 0 -- -- 58
2020-10-26 15:00:00 23.9 32 Nordeste 54 Nordeste 0 -- -- 57
2020-10-26 14:00:00 24.3 25 Nordeste 58 Nordeste 0 -- -- 56
2020-10-26 13:00:00 23.9 29 Nordeste 57 Nordeste 0 -- -- 57
2020-10-26 12:00:00 23.3 33 Nordeste 57 Nordeste 0 -- -- 58
2020-10-26 11:00:00 23.1 32 Nordeste 58 Nordeste 0 -- -- 55
2020-10-26 10:00:00 22.5 35 Nordeste 57 Nordeste 0 -- -- 57
2020-10-26 09:00:00 21.8 27 Nordeste 45 Nordeste 0 -- -- 61
2020-10-26 08:00:00 20.8 32 Nordeste 49 Nordeste 0 -- -- 64
2020-10-26 07:00:00 20.7 29 Nordeste 49 Nordeste 0 -- -- 66
2020-10-26 06:00:00 20.6 25 Nordeste 54 Nordeste 0 -- -- 66
2020-10-26 05:00:00 20.7 22 Nordeste 43 Nordeste 0 -- -- 64
2020-10-26 04:00:00 20.6 25 Nordeste 43 Nordeste 0 -- -- 65
2020-10-26 03:00:00 20.7 24 Nordeste 45 Nordeste 0 -- -- 65
2020-10-26 02:00:00 20.8 21 Nordeste 44 Nordeste 0 -- -- 65
2020-10-26 01:00:00 20.8 26 Nordeste 44 Nordeste 0 -- -- 64
2020-10-26 00:00:00 21 24 Nordeste 54 Nordeste 0 -- -- 65
2020-10-25 23:00:00 21.1 30 Nordeste 50 Nordeste 0 -- -- 65
2020-10-25 22:00:00 21.2 24 Nordeste 52 Nordeste 0 -- -- 65
2020-10-25 21:00:00 21.3 31 Nordeste 49 Norte 0 -- -- 65
2020-10-25 20:00:00 21.5 25 Nordeste 48 Nordeste 0 -- -- 63
2020-10-25 19:00:00 21.5 31 Nordeste 44 Norte 0 -- -- 64
2020-10-25 18:00:00 21.8 24 Nordeste 66 Norte 0 -- -- 62
2020-10-25 17:00:00 22.5 30 Nordeste 49 Nordeste 0 -- -- 60
2020-10-25 16:00:00 23 30 Nordeste 46 Nordeste 0 -- -- 59
2020-10-25 15:00:00 22.9 30 Nordeste 49 Nordeste 0 -- -- 59
2020-10-25 14:00:00 23.2 28 Nordeste 54 Nordeste 0 -- -- 57
2020-10-25 13:00:00 23.1 32 Nordeste 52 Nordeste 0 -- -- 59
2020-10-25 12:00:00 22.9 32 Nordeste 52 Nordeste 0 -- -- 59
2020-10-25 11:00:00 22.6 29 Nordeste 51 Norte 0 -- -- 58
2020-10-25 10:00:00 22.4 27 Nordeste 48 Nordeste 0 -- -- 59
2020-10-25 09:00:00 21.9 30 Nordeste 46 Nordeste 0 -- -- 60
2020-10-25 08:00:00 20.8 24 Nordeste 48 Nordeste 0 -- -- 63
2020-10-25 07:00:00 20.5 24 Nordeste 48 Nordeste 0 -- -- 64
2020-10-25 06:00:00 20.7 30 Nordeste 50 Nordeste 0 -- -- 62
2020-10-25 05:00:00 20.7 26 Nordeste 50 Nordeste 0 -- -- 63
2020-10-25 04:00:00 21 33 Nordeste 53 Nordeste 0 -- -- 62
2020-10-25 03:00:00 21 31 Nordeste 53 Nordeste 0 -- -- 61
2020-10-25 02:00:00 21 26 Nordeste 55 Nordeste 0 -- -- 62
2020-10-25 01:00:00 21.1 35 Nordeste 58 Nordeste 0 -- -- 64
2020-10-25 00:00:00 21.3 26 Nordeste 49 Norte 0 -- -- 64
2020-10-24 23:00:00 21.4 27 Nordeste 48 Nordeste 0 -- -- 64
2020-10-24 22:00:00 21.6 25 Nordeste 44 Nordeste 0 -- -- 65
2020-10-24 21:00:00 21.6 24 Nordeste 44 Nordeste 0 -- -- 65
2020-10-24 20:00:00 21.7 25 Nordeste 49 Nordeste 0 -- -- 62
2020-10-24 19:00:00 22.1 29 Nordeste 48 Nordeste 0 -- -- 61
2020-10-24 18:00:00 22.7 30 Nordeste 50 Nordeste 0 -- -- 61
2020-10-24 17:00:00 23.7 30 Nordeste 53 Nordeste 0 -- -- 55
2020-10-24 16:00:00 23.6 32 Nordeste 53 Nordeste 0 -- -- 55
2020-10-24 15:00:00 24.1 28 Nordeste 55 Nordeste 0 -- -- 51
2020-10-24 14:00:00 23.5 33 Nordeste 53 Nordeste 0 -- -- 54
2020-10-24 13:00:00 23.6 28 Nordeste 56 Nordeste 0 -- -- 52
2020-10-24 12:00:00 23.4 32 Nordeste 53 Nordeste 0 -- -- 51
2020-10-24 11:00:00 22.1 30 Nordeste 51 Nordeste 0 -- -- 60
2020-10-24 10:00:00 22.1 24 Nordeste 43 Nordeste 0 -- -- 57
2020-10-24 09:00:00 20.7 18 Nordeste 36 Este 0 -- -- 59
2020-10-24 08:00:00 20.4 21 Nordeste 44 Nordeste 0 -- -- 60
2020-10-24 07:00:00 20.7 17 Nordeste 41 Nordeste 0 -- -- 60
2020-10-24 06:00:00 20.6 19 Nordeste 40 Nordeste 0 -- -- 58
2020-10-24 05:00:00 20.6 22 Nordeste 45 Nordeste 0 -- -- 60
2020-10-24 04:00:00 20.4 23 Nordeste 40 Nordeste 0 -- -- 63
2020-10-24 03:00:00 20.7 18 Nordeste 37 Nordeste 0 -- -- 61
2020-10-24 02:00:00 20.9 14 Este 33 Este 0 -- -- 57
2020-10-24 01:00:00 20.8 14 Nordeste 39 Nordeste 0 -- -- 59
2020-10-24 00:00:00 20.8 19 Nordeste 38 Nordeste 0 -- -- 62
2020-10-23 23:00:00 20.9 21 Nordeste 37 Nordeste 0 -- -- 63
2020-10-23 22:00:00 20.9 14 Nordeste 34 Nordeste 0 -- -- 62
2020-10-23 21:00:00 21 12 Nordeste 34 Nordeste 0 -- -- 59
2020-10-23 20:00:00 21.4 17 Nordeste 39 Nordeste 0 -- -- 58
2020-10-23 19:00:00 22.2 26 Nordeste 46 Nordeste 0 -- -- 56
2020-10-23 18:00:00 23 24 Nordeste 41 Nordeste 0 -- -- 54
2020-10-23 17:00:00 23.8 20 Nordeste 40 Nordeste 0 -- -- 49
2020-10-23 16:00:00 23.5 23 Nordeste 43 Nordeste 0 -- -- 52
2020-10-23 15:00:00 23 26 Nordeste 45 Nordeste 0 -- -- 55
2020-10-23 14:00:00 23.4 22 Nordeste 44 Nordeste 0 -- -- 54
2020-10-23 13:00:00 23.1 22 Nordeste 36 Nordeste 0 -- -- 51
2020-10-23 12:00:00 22.4 22 Nordeste 37 Nordeste 0 -- -- 56
2020-10-23 11:00:00 22.4 13 Nordeste 30 Nordeste 0 -- -- 58
2020-10-23 10:00:00 22.2 10 Nordeste 23 Este 0 -- -- 57
2020-10-23 09:00:00 20.7 6 Este 21 Este 0 -- -- 58
2020-10-23 08:00:00 19.5 6 Este 20 Nordeste 0 -- -- 64
2020-10-23 07:00:00 19.6 9 Este 17 Este 0 -- -- 65
2020-10-23 06:00:00 19.5 8 Nordeste 17 Nordeste 0 -- -- 66
2020-10-23 05:00:00 19.4 7 Nordeste 17 Nordeste 0 -- -- 67
2020-10-23 04:00:00 19.6 9 Nordeste 24 Este 0 -- -- 66
2020-10-23 03:00:00 19.9 7 Este 14 Nordeste 0 -- -- 65
2020-10-23 02:00:00 20.3 8 Este 21 Nordeste 0 -- -- 61
2020-10-23 01:00:00 20.6 9 Este 18 Este 0 -- -- 61
2020-10-23 00:00:00 20.6 8 Este 20 Este 0 -- -- 64
2020-10-22 23:00:00 20.8 9 Este 19 Este 0 -- -- 64
2020-10-22 22:00:00 20.7 9 Este 22 Este 0 -- -- 63
2020-10-22 21:00:00 21.2 8 Este 16 Nordeste 0 -- -- 59
2020-10-22 20:00:00 21.6 9 Nordeste 20 Este 0 -- -- 59
2020-10-22 19:00:00 22.3 10 Nordeste 25 Nordeste 0 -- -- 59
2020-10-22 18:00:00 23 13 Nordeste 27 Norte 0 -- -- 57
2020-10-22 17:00:00 23.7 14 Norte 25 Norte 0 -- -- 54
2020-10-22 16:00:00 23.4 17 Norte 30 Norte 0 -- -- 54
2020-10-22 15:00:00 23.8 12 Nordeste 26 Norte 0 -- -- 55
2020-10-22 14:00:00 23.2 14 Norte 22 Norte 0 -- -- 59
2020-10-22 13:00:00 23.1 12 Norte 22 Norte 0 -- -- 58
2020-10-22 12:00:00 21.9 14 Norte 22 Norte 0 -- -- 65
2020-10-22 11:00:00 22 5 Nordeste 23 Norte 0 -- -- 64
2020-10-22 10:00:00 21.6 12 Norte 29 Norte 0 -- -- 69
2020-10-22 09:00:00 21.4 22 Norte 30 Norte 0 -- -- 72
2020-10-22 08:00:00 19.8 6 Este 16 Este 0 -- -- 79
2020-10-22 07:00:00 19.6 11 Este 20 Nordeste 3.4 -- -- 81
2020-10-22 06:00:00 20.2 13 Sudeste 20 Este 0.2 -- -- 74
2020-10-22 05:00:00 19.8 11 Nordeste 18 Sudeste 1.4 -- -- 76
2020-10-22 04:00:00 20.2 8 Este 25 Sudeste 0 -- -- 76
2020-10-22 03:00:00 20.2 14 Este 24 Este 0 -- -- 77
2020-10-22 02:00:00 19.9 12 Sudeste 26 Este 0.6 -- -- 81
2020-10-22 01:00:00 19.4 7 Sudeste 24 Sudeste 4.2 -- -- 85
2020-10-22 00:00:00 19.9 15 Sudeste 30 Sudeste 7.4 -- -- 82
2020-10-21 23:00:00 20.8 13 Sudeste 19 Este 0.2 -- -- 79
2020-10-21 22:00:00 21 12 Sudeste 31 Noroeste 0.2 -- -- 79
2020-10-21 21:00:00 22.6 20 Noroeste 33 Noroeste 0 -- -- 75
2020-10-21 20:00:00 22.7 24 Noroeste 37 Noroeste 0 -- -- 74
2020-10-21 19:00:00 22.8 6 Este 16 Nordeste 0 -- -- 68
2020-10-21 18:00:00 22.3 8 Este 19 Este 0 -- -- 70
2020-10-21 17:00:00 22.3 8 Este 33 Norte 0 -- -- 73
2020-10-21 16:00:00 22.9 26 Norte 32 Norte 0 -- -- 74
2020-10-21 15:00:00 23.5 17 Norte 28 Norte 0 -- -- 70
2020-10-21 14:00:00 23.8 15 Norte 31 Norte 0 -- -- 66
2020-10-21 13:00:00 23.8 23 Norte 32 Norte 0 -- -- 64
2020-10-21 12:00:00 23.5 24 Norte 33 Norte 0 -- -- 71
2020-10-21 11:00:00 24 19 Norte 33 Norte 0 -- -- 68
2020-10-21 10:00:00 23.8 14 Norte 22 Norte 0 -- -- 63
2020-10-21 09:00:00 22.7 6 Este 14 Este 0 -- -- 57
2020-10-21 08:00:00 21.9 10 Este 15 Este 0 -- -- 61
2020-10-21 07:00:00 22.6 7 Este 14 Sur 0 -- -- 64
2020-10-21 06:00:00 22.5 9 Este 15 Nordeste 0 -- -- 66
2020-10-21 05:00:00 22.6 6 Sudeste 17 Este 0 -- -- 67
2020-10-21 04:00:00 22.6 7 Nordeste 21 Este 0 -- -- 68
2020-10-21 03:00:00 22.5 9 Este 18 Nordeste 0 -- -- 68
2020-10-21 02:00:00 22.9 12 Nordeste 20 Nordeste 0 -- -- 66
2020-10-21 01:00:00 23.2 7 Nordeste 17 Norte 0 -- -- 69
2020-10-21 00:00:00 23.3 8 Nordeste 17 Norte 0 -- -- 69
2020-10-20 23:00:00 23.4 8 Nordeste 17 Nordeste 0 -- -- 71
2020-10-20 22:00:00 23.6 7 Nordeste 16 Este 0 -- -- 71
2020-10-20 21:00:00 23.1 9 Norte 26 Norte 0 -- -- 75
2020-10-20 20:00:00 24.3 12 Nordeste 30 Oeste 0 -- -- 71
2020-10-20 19:00:00 25.1 27 Oeste 45 Sudoeste 0 -- -- 73
2020-10-20 18:00:00 26.5 22 Oeste 35 Sudoeste 0 -- -- 70
2020-10-20 17:00:00 26 29 Sudoeste 55 Sudoeste 0 -- -- 74
2020-10-20 16:00:00 26.2 36 Sudoeste 64 Sudoeste 0 -- -- 70
2020-10-20 15:00:00 26.6 45 Sudoeste 71 Sudoeste 0 -- -- 65
2020-10-20 14:00:00 27.3 37 Sudoeste 75 Sudoeste 0 -- -- 58
2020-10-20 13:00:00 26.9 55 Sudoeste 75 Sudoeste 0 -- -- 55
2020-10-20 12:00:00 28 45 Sudoeste 77 Sudoeste 0 -- -- 49
2020-10-20 11:00:00 27.6 51 Sudoeste 72 Sudoeste 0 -- -- 52
2020-10-20 10:00:00 27.7 44 Sur 66 Sur 0 -- -- 47
2020-10-20 09:00:00 27.8 38 Sur 53 Sur 0 -- -- 46
2020-10-20 08:00:00 27.9 34 Sudoeste 77 Sur 0 -- -- 45
2020-10-20 07:00:00 26.7 33 Sudoeste 58 Sudoeste 0 -- -- 51
2020-10-20 06:00:00 26.4 33 Sudoeste 62 Sudoeste 0 -- -- 58
2020-10-20 05:00:00 26.3 41 Sudoeste 53 Sudoeste 0 -- -- 57
2020-10-20 04:00:00 25.6 38 Sudoeste 53 Sudoeste 0 -- -- 64
2020-10-20 03:00:00 23.6 5 Este 13 Nordeste 0 -- -- 70
2020-10-20 02:00:00 23.4 5 Nordeste 12 Este 0 -- -- 71
2020-10-20 01:00:00 23.9 7 Este 20 Este 0 -- -- 73
2020-10-20 00:00:00 23.6 8 Nordeste 13 Este 0 -- -- 79
2020-10-19 23:00:00 23.7 9 Sur 27 Sudoeste 0 -- -- 81
2020-10-19 22:00:00 24.2 14 Sudoeste 24 Sur 0 -- -- 77
2020-10-19 21:00:00 24.4 15 Sudoeste 32 Oeste 0 -- -- 77
2020-10-19 20:00:00 24.8 25 Sudoeste 35 Sudoeste 0 -- -- 73
2020-10-19 19:00:00 25.2 16 Sudoeste 29 Sudoeste 0 -- -- 76
2020-10-19 18:00:00 25.1 25 Sudoeste 32 Oeste 0 -- -- 76
2020-10-19 17:00:00 26.1 12 Sudoeste 31 Sudoeste 0 -- -- 70
2020-10-19 16:00:00 25.2 19 Sudoeste 31 Sudoeste 0 -- -- 75
2020-10-19 15:00:00 25.2 24 Sudoeste 30 Sudoeste 0 -- -- 73
2020-10-19 14:00:00 25.4 19 Sur 34 Sur 0 -- -- 72
2020-10-19 13:00:00 24.6 23 Sudoeste 40 Sudoeste 0 -- -- 75
2020-10-19 12:00:00 24.7 23 Sudoeste 32 Sudoeste 0 -- -- 73
2020-10-19 11:00:00 25.9 4 Norte 9 Noroeste 0 -- -- 65
2020-10-19 10:00:00 25.8 3 Sudeste 15 Nordeste 0 -- -- 65
2020-10-19 09:00:00 22.9 7 Este 18 Este 0 -- -- 70
2020-10-19 08:00:00 21.6 13 Este 21 Este 0 -- -- 76
2020-10-19 07:00:00 21.5 8 Este 17 Este 0 -- -- 79
2020-10-19 06:00:00 21.4 6 Este 29 Este 0 -- -- 80
2020-10-19 05:00:00 21.6 15 Este 26 Este 0 -- -- 81
2020-10-19 04:00:00 21.4 13 Este 26 Oeste 0 -- -- 81
2020-10-19 03:00:00 21.7 14 Oeste 22 Sudoeste 0 -- -- 81
2020-10-19 02:00:00 21.8 18 Sudoeste 29 Sudoeste 0 -- -- 81
2020-10-19 01:00:00 21.9 18 Sudoeste 27 Sudoeste 0 -- -- 80
2020-10-19 00:00:00 22 18 Sudoeste 26 Sudoeste 0 -- -- 79
2020-10-18 23:00:00 22 16 Sudoeste 28 Sudoeste 0 -- -- 79
2020-10-18 22:00:00 22 23 Sudoeste 33 Sudoeste 0 -- -- 79
2020-10-18 21:00:00 22.2 19 Sudoeste 36 Sudoeste 0 -- -- 78
2020-10-18 20:00:00 22.4 22 Sudoeste 40 Sudoeste 0 -- -- 78
2020-10-18 19:00:00 22.7 28 Sudoeste 37 Sudoeste 0 -- -- 76
2020-10-18 18:00:00 23.2 28 Sudoeste 35 Sudoeste 0 -- -- 74
2020-10-18 17:00:00 23.3 30 Sudoeste 37 Sudoeste 0 -- -- 74
2020-10-18 16:00:00 23.4 29 Sudoeste 35 Sudoeste 0 -- -- 73
2020-10-18 15:00:00 23.7 24 Sudoeste 28 Sudoeste 0 -- -- 72
2020-10-18 14:00:00 24.6 6 Noroeste 12 Norte 0 -- -- 63
2020-10-18 13:00:00 24.2 8 Noroeste 12 Norte 0 -- -- 66
2020-10-18 12:00:00 23.7 8 Noroeste 9 Noroeste 0 -- -- 65
2020-10-18 11:00:00 24.8 4 Noroeste 7 Norte 0 -- -- 61
2020-10-18 10:00:00 24.4 4 Sur 10 Este 0 -- -- 64
2020-10-18 09:00:00 20.7 6 Este 10 Este 0 -- -- 73
2020-10-18 08:00:00 20.7 6 Este 12 Este 0 -- -- 73
2020-10-18 07:00:00 20.7 3 Este 14 Este 0 -- -- 73
2020-10-18 06:00:00 20.8 8 Este 12 Este 0 -- -- 73
2020-10-18 05:00:00 20.9 5 Este 14 Este 0 -- -- 70
2020-10-18 04:00:00 20.4 2 Este 10 Este 0 -- -- 76
2020-10-18 03:00:00 20.7 3 Este 9 Este 0 -- -- 75
2020-10-18 02:00:00 21.5 6 Sudeste 8 Sudeste 0 -- -- 74
2020-10-18 01:00:00 21.6 4 Sur 11 Sudoeste 0 -- -- 74
2020-10-18 00:00:00 21.9 6 Sudoeste 13 Sudoeste 0 -- -- 74
2020-10-17 23:00:00 22 11 Sudoeste 15 Sudoeste 0 -- -- 74
2020-10-17 22:00:00 22 6 Sudoeste 15 Sudoeste 0 -- -- 73
2020-10-17 21:00:00 22 10 Sudoeste 24 Sudoeste 0 -- -- 74
2020-10-17 20:00:00 22.2 15 Sudoeste 20 Sudoeste 0 -- -- 73
2020-10-17 19:00:00 23.5 14 Sudoeste 22 Este 0 -- -- 69
2020-10-17 18:00:00 24.5 15 Nordeste 24 Nordeste 0 -- -- 59
2020-10-17 17:00:00 25.2 9 Nordeste 24 Nordeste 0 -- -- 56
2020-10-17 16:00:00 23.9 14 Nordeste 29 Nordeste 0 -- -- 59
2020-10-17 15:00:00 23.9 13 Nordeste 30 Nordeste 0 -- -- 60
2020-10-17 14:00:00 24 13 Nordeste 28 Nordeste 0 -- -- 60
2020-10-17 13:00:00 24.8 11 Nordeste 28 Nordeste 0 -- -- 56
2020-10-17 12:00:00 24.4 15 Norte 29 Norte 0 -- -- 60
2020-10-17 11:00:00 23.8 19 Norte 30 Norte 0 -- -- 58
2020-10-17 10:00:00 23.9 11 Nordeste 21 Nordeste 0 -- -- 53
2020-10-17 09:00:00 22.5 8 Este 18 Este 0 -- -- 54
2020-10-17 08:00:00 21.7 8 Este 21 Este 0 -- -- 59
2020-10-17 07:00:00 21.6 13 Nordeste 24 Nordeste 0 -- -- 63
2020-10-17 06:00:00 22.3 8 Este 24 Este 0 -- -- 57
2020-10-17 05:00:00 22.1 9 Nordeste 30 Nordeste 0 -- -- 59
2020-10-17 04:00:00 22.1 15 Nordeste 35 Este 0 -- -- 60
2020-10-17 03:00:00 21.7 17 Nordeste 35 Nordeste 0 -- -- 65
2020-10-17 02:00:00 21.9 14 Nordeste 31 Nordeste 0 -- -- 65
2020-10-17 01:00:00 22.1 13 Este 31 Nordeste 0 -- -- 65
2020-10-17 00:00:00 22.2 16 Nordeste 33 Nordeste 0 -- -- 66
2020-10-16 23:00:00 22.1 22 Nordeste 33 Nordeste 0 -- -- 67
2020-10-16 22:00:00 22.2 17 Nordeste 36 Nordeste 0 -- -- 69
2020-10-16 21:00:00 22.5 18 Nordeste 35 Nordeste 0 -- -- 65
2020-10-16 20:00:00 22.6 21 Nordeste 33 Nordeste 0 -- -- 66
2020-10-16 19:00:00 23.1 14 Nordeste 36 Nordeste 0 -- -- 65
2020-10-16 18:00:00 23.5 20 Nordeste 43 Nordeste 0 -- -- 62
2020-10-16 17:00:00 24.7 18 Nordeste 35 Nordeste 0 -- -- 60
2020-10-16 16:00:00 24.9 20 Nordeste 38 Nordeste 0 -- -- 58
2020-10-16 15:00:00 25.3 15 Nordeste 34 Nordeste 0 -- -- 59
2020-10-16 14:00:00 25.9 12 Nordeste 27 Este 0 -- -- 56
2020-10-16 13:00:00 25.6 8 Sur 14 Sudoeste 0 -- -- 61
2020-10-16 12:00:00 25.4 7 Sur 12 Sudoeste 0 -- -- 61
2020-10-16 11:00:00 25.3 8 Sur 10 Sur 0 -- -- 61
2020-10-16 10:00:00 24.3 4 Sudeste 17 Este 0 -- -- 60
2020-10-16 09:00:00 21.5 11 Sudeste 15 Este 0 -- -- 68
2020-10-16 08:00:00 21.2 8 Este 15 Este 0 -- -- 69
2020-10-16 07:00:00 21.2 9 Este 21 Nordeste 0 -- -- 70
2020-10-16 06:00:00 21.6 8 Este 18 Este 0 -- -- 69
2020-10-16 05:00:00 22 6 Este 18 Nordeste 0 -- -- 66
2020-10-16 04:00:00 22.1 9 Este 19 Este 0 -- -- 69
2020-10-16 03:00:00 22 7 Este 13 Este 0 -- -- 72
2020-10-16 02:00:00 22.3 3 Este 11 Norte 0 -- -- 72
2020-10-16 01:00:00 22.4 7 Sudeste 31 Nordeste 0 -- -- 71
2020-10-16 00:00:00 22.3 12 Nordeste 33 Nordeste 0 -- -- 71
2020-10-15 23:00:00 22.4 12 Nordeste 29 Nordeste 0 -- -- 71
2020-10-15 22:00:00 22.7 12 Nordeste 40 Nordeste 0 -- -- 68
2020-10-15 21:00:00 22.4 13 Este 34 Este 0 -- -- 69
2020-10-15 20:00:00 22.6 12 Nordeste 36 Nordeste 0 -- -- 70
2020-10-15 19:00:00 23.8 10 Nordeste 23 Nordeste 0 -- -- 67
2020-10-15 18:00:00 25.7 10 Sur 14 Sur 0 -- -- 64
2020-10-15 17:00:00 26.9 8 Sur 15 Sur 0 -- -- 59
2020-10-15 16:00:00 27 7 Sudoeste 24 Sur 0 -- -- 59
2020-10-15 15:00:00 25.4 13 Sur 18 Sur 0 -- -- 66
2020-10-15 14:00:00 24.4 8 Oeste 17 Oeste 0 -- -- 69
2020-10-15 13:00:00 24.3 10 Oeste 23 Oeste 0 -- -- 68
2020-10-15 12:00:00 23.6 14 Oeste 20 Oeste 0 -- -- 71
2020-10-15 11:00:00 24 12 Oeste 20 Sudoeste 0 -- -- 71
2020-10-15 10:00:00 23.9 12 Sur 25 Sur 0 -- -- 63
2020-10-15 09:00:00 22.9 11 Sudeste 40 Nordeste 0 -- -- 60
2020-10-15 08:00:00 21.3 19 Nordeste 34 Norte 0 -- -- 70
2020-10-15 07:00:00 21 9 Este 17 Este 0 -- -- 63
2020-10-15 06:00:00 21.4 11 Este 16 Este 0 -- -- 62
2020-10-15 05:00:00 21.8 9 Sudeste 18 Este 0 -- -- 59
2020-10-15 04:00:00 21.8 9 Sudeste 19 Nordeste 0 -- -- 64
2020-10-15 03:00:00 22.3 10 Este 23 Este 0 -- -- 58
2020-10-15 02:00:00 22 9 Este 22 Norte 0 -- -- 64
2020-10-15 01:00:00 23.2 4 Nordeste 28 Sudeste 0 -- -- 61
2020-10-15 00:00:00 23.3 9 Sudeste 33 Este 0 -- -- 69
2020-10-14 23:00:00 23.6 11 Este 46 Este 0 -- -- 52
2020-10-14 22:00:00 23.7 13 Este 35 Nordeste 0 -- -- 48
2020-10-14 21:00:00 22.9 13 Nordeste 37 Nordeste 0 -- -- 69
2020-10-14 20:00:00 23.3 13 Este 40 Nordeste 0 -- -- 66
2020-10-14 19:00:00 24.3 18 Nordeste 40 Nordeste 0 -- -- 64
2020-10-14 18:00:00 25.5 12 Sudoeste 20 Sudoeste 0 -- -- 72
2020-10-14 17:00:00 26.2 8 Sur 10 Sur 0 -- -- 69
2020-10-14 16:00:00 26.3 8 Sudoeste 15 Sudoeste 0 -- -- 70
2020-10-14 15:00:00 25.5 12 Sudoeste 27 Sur 0 -- -- 71
2020-10-14 14:00:00 25.6 15 Sur 19 Sur 0 -- -- 70
2020-10-14 13:00:00 26.6 12 Sur 15 Sur 0 -- -- 66
2020-10-14 12:00:00 26.4 9 Sur 21 Nordeste 0 -- -- 63
2020-10-14 11:00:00 25.6 6 Nordeste 24 Nordeste 0 -- -- 63
2020-10-14 10:00:00 24.3 6 Este 17 Este 0 -- -- 69
2020-10-14 09:00:00 22.3 10 Sudeste 15 Este 0 -- -- 72
2020-10-14 08:00:00 21.8 6 Este 9 Este 0 -- -- 73
2020-10-14 07:00:00 22.1 5 Nordeste 15 Este 0 -- -- 63
2020-10-14 06:00:00 22.4 8 Este 13 Sur 0 -- -- 69
2020-10-14 05:00:00 23.2 8 Sudeste 13 Sur 0 -- -- 78
2020-10-14 04:00:00 22.9 7 Norte 10 Norte 0 -- -- 79
2020-10-14 03:00:00 23.6 7 Sudoeste 21 Sur 0 -- -- 80
2020-10-14 02:00:00 23.9 6 Sur 13 Sur 0 -- -- 77
2020-10-14 01:00:00 26.4 8 Sur 18 Sudeste 0 -- -- 60
2020-10-14 00:00:00 26.9 6 Este 20 Este 0 -- -- 26
2020-10-13 23:00:00 27.2 10 Sudeste 31 Este 0 -- -- 33
2020-10-13 22:00:00 26.7 21 Este 29 Sudeste 0 -- -- 43
2020-10-13 21:00:00 26 13 Sur 32 Sudeste 0 -- -- 67
2020-10-13 20:00:00 26.7 18 Sudeste 35 Sudeste 0 -- -- 57
2020-10-13 19:00:00 26.8 8 Sudeste 18 Sudeste 0 -- -- 67
2020-10-13 18:00:00 26.2 6 Sudeste 9 Sur 0 -- -- 73
2020-10-13 17:00:00 26.5 6 Sudeste 18 Sudeste 0 -- -- 74
2020-10-13 16:00:00 26.2 10 Sur 15 Sudeste 0 -- -- 71
2020-10-13 15:00:00 25.9 7 Sur 13 Noroeste 0 -- -- 71
2020-10-13 14:00:00 26.5 3 Oeste 10 Sudoeste 0 -- -- 68
2020-10-13 13:00:00 26 6 Sudoeste 21 Sudoeste 0 -- -- 72
2020-10-13 12:00:00 25.7 13 Sudoeste 27 Sudoeste 0 -- -- 72
2020-10-13 11:00:00 25.1 19 Sudoeste 30 Sudoeste 0 -- -- 74
2020-10-13 10:00:00 26.7 0 Calma 10 Sudoeste 0 -- -- 63
2020-10-13 09:00:00 25.5 3 Sudeste 12 Este 0 -- -- 57
2020-10-13 08:00:00 23.8 0 Calma 10 Este 0 -- -- 54
2020-10-13 07:00:00 24.4 7 Sur 31 Sudeste 0 -- -- 70
2020-10-13 06:00:00 25.9 7 Este 22 Sudeste 0 -- -- 45
2020-10-13 05:00:00 26.7 9 Sudeste 26 Sudeste 0 -- -- 42
2020-10-13 04:00:00 25.6 5 Sudoeste 9 Sur 0 -- -- 63
2020-10-13 03:00:00 25.4 4 Sudeste 17 Sudeste 0 -- -- 65
2020-10-13 02:00:00 26.9 8 Sur 23 Sudeste 0 -- -- 61
2020-10-13 01:00:00 30.7 15 Este 23 Sudeste 0 -- -- 27
2020-10-13 00:00:00 -- -- -- -- -- -- -- -- --
2020-10-12 23:00:00 28.2 21 Este 28 Este 0 -- -- 42
2020-10-12 22:00:00 28.1 15 Este 33 Este 0 -- -- 46
2020-10-12 21:00:00 26.8 17 Este 25 Este 0 -- -- 59
2020-10-12 20:00:00 25.6 4 Sur 6 Sur 0 -- -- 74
2020-10-12 19:00:00 26.5 4 Sudeste 9 Sudeste 0 -- -- 68
2020-10-12 18:00:00 29.8 4 Sur 10 Noroeste 0 -- -- 54
2020-10-12 17:00:00 -- -- -- -- -- -- -- -- --
2020-10-12 16:00:00 28.3 5 Sudoeste 14 Sudoeste 0 -- -- 61
2020-10-12 15:00:00 27.9 8 Sudoeste 11 Sur 0 -- -- 66
2020-10-12 14:00:00 28.5 3 Noroeste 8 Sur 0 -- -- 57
2020-10-12 13:00:00 26.7 3 Oeste 11 Sur 0 -- -- 66
2020-10-12 12:00:00 27.5 5 Sur 10 Sudeste 0 -- -- 57
2020-10-12 11:00:00 27.3 3 Sur 9 Sur 0 -- -- 58
2020-10-12 10:00:00 25.7 2 Oeste 7 Sur 0 -- -- 66
2020-10-12 09:00:00 24.6 6 Sur 22 Sudeste 0 -- -- 61
2020-10-12 08:00:00 24.1 13 Sudeste 27 Sudeste 0 -- -- 59
2020-10-12 07:00:00 24.3 14 Sudeste 25 Sudeste 0 -- -- 56
2020-10-12 06:00:00 23.4 13 Sur 31 Nordeste 0 -- -- 70
2020-10-12 05:00:00 24.5 8 Sudeste 33 Sudeste 0 -- -- 57
2020-10-12 04:00:00 23.9 16 Sudeste 32 Este 0 -- -- 64
2020-10-12 03:00:00 -- -- -- -- -- -- -- -- --
2020-10-12 02:00:00 22.9 11 Este 42 Este 0 -- -- 74
2020-10-12 01:00:00 22.8 18 Nordeste 47 Nordeste 0 -- -- 76
2020-10-12 00:00:00 23 19 Nordeste 50 Nordeste 0 -- -- 75
2020-10-11 23:00:00 23.1 21 Nordeste 51 Este 0 -- -- 75
2020-10-11 22:00:00 23.1 19 Nordeste 51 Norte 0 -- -- 75
2020-10-11 21:00:00 23.3 26 Nordeste 47 Nordeste 0 -- -- 74
2020-10-11 20:00:00 -- -- -- -- -- -- -- -- --
2020-10-11 19:00:00 -- -- -- -- -- -- -- -- --
2020-10-11 18:00:00 24.6 25 Nordeste 51 Nordeste 0 -- -- 69
2020-10-11 17:00:00 25 27 Nordeste 55 Nordeste 0 -- -- 67
2020-10-11 16:00:00 25.6 24 Nordeste 49 Nordeste 0 -- -- 66
2020-10-11 15:00:00 25.5 26 Nordeste 47 Este 0 -- -- 65
2020-10-11 14:00:00 25.5 24 Nordeste 58 Nordeste 0 -- -- 65
2020-10-11 13:00:00 25.1 29 Nordeste 50 Norte 0 -- -- 67
2020-10-11 12:00:00 24.8 27 Nordeste 47 Nordeste 0 -- -- 66
2020-10-11 11:00:00 24.5 22 Nordeste 51 Norte 0 -- -- 67
2020-10-11 10:00:00 23.7 27 Nordeste 48 Nordeste 0 -- -- 69
2020-10-11 09:00:00 22.7 27 Nordeste 51 Nordeste 0 -- -- 72
2020-10-11 08:00:00 22.6 29 Nordeste 46 Nordeste 0 -- -- 71
2020-10-11 07:00:00 22.7 21 Nordeste 47 Nordeste 0 -- -- 68
2020-10-11 06:00:00 22.5 28 Nordeste 48 Norte 0 -- -- 70
2020-10-11 05:00:00 22.5 23 Nordeste 40 Nordeste 0 -- -- 72
2020-10-11 04:00:00 22.5 24 Nordeste 39 Nordeste 0 -- -- 68
2020-10-11 03:00:00 22.5 24 Norte 42 Nordeste 0 -- -- 73
2020-10-11 02:00:00 22.5 24 Nordeste 39 Nordeste 0 -- -- 72
2020-10-11 01:00:00 22.6 20 Nordeste 38 Nordeste 0 -- -- 73
2020-10-11 00:00:00 22.7 23 Norte 40 Norte 0 -- -- 72
2020-10-10 23:00:00 22.7 22 Norte 42 Nordeste 0 -- -- 73
2020-10-10 22:00:00 22.8 22 Nordeste 48 Nordeste 0 -- -- 72
2020-10-10 21:00:00 23.1 23 Nordeste 44 Nordeste 0 -- -- 72
2020-10-10 20:00:00 23.2 23 Nordeste 45 Nordeste 0 -- -- 70
2020-10-10 19:00:00 24.3 22 Nordeste 48 Norte 0 -- -- 60
2020-10-10 18:00:00 24.3 27 Nordeste 48 Norte 0 -- -- 63
2020-10-10 17:00:00 24.9 26 Norte 45 Norte 0 -- -- 62
2020-10-10 16:00:00 25.2 23 Nordeste 43 Nordeste 0 -- -- 61
2020-10-10 15:00:00 25 25 Nordeste 43 Nordeste 0 -- -- 60
2020-10-10 14:00:00 24.7 23 Norte 48 Nordeste 0 -- -- 63
2020-10-10 13:00:00 24.9 23 Norte 42 Nordeste 0 -- -- 64
2020-10-10 12:00:00 24.9 21 Nordeste 42 Nordeste 0 -- -- 62
2020-10-10 11:00:00 24 21 Nordeste 39 Nordeste 0 -- -- 67
2020-10-10 10:00:00 23.4 21 Nordeste 35 Nordeste 0 -- -- 69
2020-10-10 09:00:00 22.3 18 Nordeste 31 Nordeste 0 -- -- 74
2020-10-10 08:00:00 22.1 15 Nordeste 40 Nordeste 0 -- -- 73
2020-10-10 07:00:00 22.2 22 Nordeste 37 Nordeste 0 -- -- 75
2020-10-10 06:00:00 22.4 17 Nordeste 33 Nordeste 0 -- -- 73
2020-10-10 05:00:00 22.5 18 Nordeste 32 Nordeste 0 -- -- 74
2020-10-10 04:00:00 22.5 17 Nordeste 31 Nordeste 0 -- -- 75
2020-10-10 03:00:00 22.8 19 Nordeste 35 Nordeste 0 -- -- 72
2020-10-10 02:00:00 22.8 18 Nordeste 33 Nordeste 0 -- -- 75
2020-10-10 01:00:00 22.6 15 Nordeste 31 Nordeste 0 -- -- 73
2020-10-10 00:00:00 22.9 20 Nordeste 35 Norte 0 -- -- 72
2020-10-09 23:00:00 23.1 19 Nordeste 32 Nordeste 0 -- -- 74
2020-10-09 22:00:00 23.2 15 Nordeste 28 Nordeste 0 -- -- 74
2020-10-09 21:00:00 23.3 17 Nordeste 29 Nordeste 0 -- -- 74
2020-10-09 20:00:00 23.4 18 Nordeste 32 Norte 0 -- -- 73
2020-10-09 19:00:00 24 17 Norte 33 Norte 0 -- -- 73
2020-10-09 18:00:00 24.3 20 Norte 33 Norte 0 -- -- 71
2020-10-09 17:00:00 25.3 23 Norte 36 Norte 0 -- -- 67
2020-10-09 16:00:00 25.1 23 Norte 37 Norte 0 -- -- 68
2020-10-09 15:00:00 24.8 22 Norte 40 Norte 0 -- -- 67
2020-10-09 14:00:00 26.2 18 Nordeste 39 Norte 0 -- -- 60
2020-10-09 13:00:00 25.4 22 Nordeste 42 Nordeste 0 -- -- 64
2020-10-09 12:00:00 24.9 25 Nordeste 46 Nordeste 0 -- -- 67
2020-10-09 11:00:00 24.4 25 Nordeste 40 Nordeste 0 -- -- 70
2020-10-09 10:00:00 23.5 22 Nordeste 37 Norte 0 -- -- 74
2020-10-09 09:00:00 23.6 19 Nordeste 40 Nordeste 0 -- -- 71
2020-10-09 08:00:00 23 15 Nordeste 30 Nordeste 0 -- -- 75
2020-10-09 07:00:00 22.9 17 Nordeste 27 Norte 0 -- -- 76
2020-10-09 06:00:00 23 18 Nordeste 31 Nordeste 0 -- -- 76
2020-10-09 05:00:00 23 15 Nordeste 29 Nordeste 0 -- -- 75
2020-10-09 04:00:00 22.9 16 Nordeste 30 Nordeste 0 -- -- 77
2020-10-09 03:00:00 22.9 17 Nordeste 38 Norte 0 -- -- 77
2020-10-09 02:00:00 22.8 26 Norte 42 Norte 0 -- -- 76
2020-10-09 01:00:00 22.9 24 Norte 37 Norte 0 -- -- 77
2020-10-09 00:00:00 23 22 Norte 33 Norte 0 -- -- 75
2020-10-08 23:00:00 23.1 19 Norte 32 Norte 0 -- -- 75
2020-10-08 22:00:00 23.1 15 Norte 33 Norte 0 -- -- 78
2020-10-08 21:00:00 23.3 17 Norte 36 Norte 0 -- -- 78
2020-10-08 20:00:00 24.1 5 Noroeste 26 Nordeste 0 -- -- 75
2020-10-08 19:00:00 25.2 12 Nordeste 29 Este 0 -- -- 72
2020-10-08 18:00:00 25.1 19 Norte 32 Norte 0 -- -- 73
2020-10-08 17:00:00 25.7 17 Norte 38 Norte 0 -- -- 71
2020-10-08 16:00:00 25.4 27 Norte 36 Norte 0 -- -- 72
2020-10-08 15:00:00 27.6 13 Sur 22 Sur 0 -- -- 63
2020-10-08 14:00:00 27 14 Sur 23 Sur 0 -- -- 66
2020-10-08 13:00:00 26.5 17 Sur 22 Sur 0 -- -- 63
2020-10-08 12:00:00 26.4 9 Sur 15 Sudeste 0 -- -- 67
2020-10-08 11:00:00 25.1 10 Sudeste 19 Este 0 -- -- 67
2020-10-08 10:00:00 25.4 8 Sur 19 Este 0 -- -- 61
2020-10-08 09:00:00 24.6 5 Sur 13 Sur 0 -- -- 60
2020-10-08 08:00:00 23 8 Sur 11 Sudeste 0 -- -- 66
2020-10-08 07:00:00 22.8 6 Sudeste 9 Sudeste 0 -- -- 67
2020-10-08 06:00:00 23.6 3 Sur 16 Nordeste 0 -- -- 51
2020-10-08 05:00:00 23.5 6 Norte 20 Nordeste 0 -- -- 58
2020-10-08 04:00:00 23 8 Este 19 Sudeste 0 -- -- 62
2020-10-08 03:00:00 22.9 14 Sudeste 23 Este 0 -- -- 70
2020-10-08 02:00:00 23.1 13 Sudeste 23 Este 0 -- -- 72
2020-10-08 01:00:00 23.2 9 Nordeste 21 Nordeste 0 -- -- 73
2020-10-08 00:00:00 23.1 12 Este 22 Nordeste 0 -- -- 76
2020-10-07 23:00:00 23.3 7 Este 26 Nordeste 0 -- -- 78
2020-10-07 22:00:00 23.6 10 Este 19 Este 0 -- -- 77
2020-10-07 21:00:00 24.1 4 Sudeste 12 Nordeste 0 -- -- 76
2020-10-07 20:00:00 24.3 4 Sudoeste 8 Sur 0 -- -- 76
2020-10-07 19:00:00 26.1 5 Sur 9 Sur 0 -- -- 70
2020-10-07 18:00:00 26.5 6 Sur 12 Sur 0 -- -- 69
2020-10-07 17:00:00 28.4 5 Sudoeste 13 Sur 0 -- -- 62
2020-10-07 16:00:00 27.7 10 Sur 13 Sur 0 -- -- 66
2020-10-07 15:00:00 26.9 10 Sur 13 Sur 0 -- -- 68
2020-10-07 14:00:00 26.3 10 Sur 14 Sur 0 -- -- 69
2020-10-07 13:00:00 25.6 9 Sur 13 Sur 0 -- -- 69
2020-10-07 12:00:00 26 4 Sudoeste 10 Sur 0 -- -- 67
2020-10-07 11:00:00 24.7 8 Sur 14 Sudoeste 0 -- -- 72
2020-10-07 10:00:00 24 10 Sur 15 Sudeste 0 -- -- 72
2020-10-07 09:00:00 22.3 8 Sudeste 12 Este 0 -- -- 73
2020-10-07 08:00:00 21.7 10 Este 13 Este 0 -- -- 77
2020-10-07 07:00:00 21.7 8 Este 12 Este 0 -- -- 81
2020-10-07 06:00:00 21.9 5 Este 9 Este 0 -- -- 82
2020-10-07 05:00:00 21.8 5 Este 9 Este 0 -- -- 80
2020-10-07 04:00:00 22 6 Este 9 Este 0 -- -- 77
2020-10-07 03:00:00 22.3 9 Este 12 Este 0 -- -- 76
2020-10-07 02:00:00 22.7 6 Sur 22 Sur 0 -- -- 82
2020-10-07 01:00:00 23.1 18 Sudeste 34 Sudeste 0 -- -- 71
2020-10-07 00:00:00 22.9 12 Sudeste 23 Sudeste 0 -- -- 71
2020-10-06 23:00:00 23.3 7 Sudeste 24 Nordeste 0 -- -- 68
2020-10-06 22:00:00 22.8 9 Este 28 Nordeste 0 -- -- 72
2020-10-06 21:00:00 22.9 7 Nordeste 26 Este 0 -- -- 72
2020-10-06 20:00:00 22.7 14 Este 30 Nordeste 0 -- -- 73
2020-10-06 19:00:00 23.6 9 Este 40 Nordeste 0 -- -- 71
2020-10-06 18:00:00 23.2 17 Nordeste 36 Nordeste 0 -- -- 73
2020-10-06 17:00:00 23.2 15 Nordeste 34 Nordeste 0.2 -- -- 76
2020-10-06 16:00:00 21.9 15 Sudoeste 30 Sudoeste 0 -- -- 85
2020-10-06 15:00:00 22.7 14 Sudoeste 27 Nordeste 0.2 -- -- 81
2020-10-06 14:00:00 22.2 7 Sudeste 35 Nordeste 1.4 -- -- 82
2020-10-06 13:00:00 22 6 Nordeste 32 Sudoeste 2.2 -- -- 81
2020-10-06 12:00:00 24 8 Este 39 Nordeste 0 -- -- 67
2020-10-06 11:00:00 23.7 10 Este 32 Nordeste 0 -- -- 67
2020-10-06 10:00:00 23.1 17 Nordeste 50 Este 0 -- -- 65
2020-10-06 09:00:00 22.4 27 Nordeste 51 Nordeste 0 -- -- 67
2020-10-06 08:00:00 22.1 23 Nordeste 47 Este 0 -- -- 69
2020-10-06 07:00:00 21.9 19 Nordeste 47 Nordeste 0 -- -- 72
2020-10-06 06:00:00 22.4 18 Nordeste 44 Nordeste 0 -- -- 70
2020-10-06 05:00:00 22.4 18 Nordeste 40 Nordeste 0 -- -- 70
2020-10-06 04:00:00 22.4 18 Nordeste 35 Norte 0 -- -- 70
2020-10-06 03:00:00 22.5 13 Nordeste 27 Nordeste 0 -- -- 71
2020-10-06 02:00:00 23.5 6 Sudoeste 34 Nordeste 0 -- -- 72
2020-10-06 01:00:00 23.1 13 Este 33 Nordeste 0 -- -- 67
2020-10-06 00:00:00 23 17 Este 40 Nordeste 0 -- -- 68
2020-10-05 23:00:00 22.8 25 Nordeste 41 Nordeste 0 -- -- 71
2020-10-05 22:00:00 23 18 Nordeste 31 Nordeste 0 -- -- 67
2020-10-05 21:00:00 23.4 12 Nordeste 48 Este 0 -- -- 63
2020-10-05 20:00:00 23.4 18 Nordeste 36 Este 0 -- -- 66
2020-10-05 19:00:00 23.9 18 Nordeste 46 Nordeste 0 -- -- 62
2020-10-05 18:00:00 25.4 25 Nordeste 46 Nordeste 0 -- -- 53
2020-10-05 17:00:00 25.6 26 Nordeste 55 Nordeste 0 -- -- 54
2020-10-05 16:00:00 26.2 27 Nordeste 46 Nordeste 0 -- -- 54
2020-10-05 15:00:00 26.2 27 Nordeste 48 Nordeste 0 -- -- 55
2020-10-05 14:00:00 26.5 22 Nordeste 51 Nordeste 0 -- -- 52
2020-10-05 13:00:00 25.5 29 Nordeste 49 Nordeste 0 -- -- 57
2020-10-05 12:00:00 25.1 26 Nordeste 48 Nordeste 0 -- -- 60
2020-10-05 11:00:00 24.9 25 Nordeste 47 Nordeste 0 -- -- 56
2020-10-05 10:00:00 23.9 23 Nordeste 41 Nordeste 0 -- -- 64
2020-10-05 09:00:00 23.5 19 Nordeste 37 Nordeste 0 -- -- 61
2020-10-05 08:00:00 22.4 15 Nordeste 30 Nordeste 0 -- -- 68
2020-10-05 07:00:00 22.1 14 Nordeste 38 Nordeste 0 -- -- 69
2020-10-05 06:00:00 22 14 Nordeste 37 Nordeste 0 -- -- 69
2020-10-05 05:00:00 22.2 17 Nordeste 34 Nordeste 0 -- -- 67
2020-10-05 04:00:00 22 18 Nordeste 34 Nordeste 0 -- -- 67
2020-10-05 03:00:00 22.7 17 Nordeste 36 Nordeste 0 -- -- 61
2020-10-05 02:00:00 21.8 15 Nordeste 32 Nordeste 0 -- -- 70
2020-10-05 01:00:00 22.5 19 Nordeste 39 Nordeste 0 -- -- 67
2020-10-05 00:00:00 22.8 13 Nordeste 38 Nordeste 0 -- -- 63
2020-10-04 23:00:00 22.2 20 Nordeste 35 Este 0 -- -- 70
2020-10-04 22:00:00 22.8 14 Nordeste 37 Este 0 -- -- 64
2020-10-04 21:00:00 22.7 17 Nordeste 35 Nordeste 0 -- -- 65
2020-10-04 20:00:00 22.9 14 Nordeste 35 Nordeste 0 -- -- 64
2020-10-04 19:00:00 23.4 22 Nordeste 38 Nordeste 0 -- -- 64
2020-10-04 18:00:00 24.2 19 Nordeste 39 Nordeste 0 -- -- 61
2020-10-04 17:00:00 24.8 18 Nordeste 41 Norte 0 -- -- 61
2020-10-04 16:00:00 24.2 19 Norte 33 Nordeste 0 -- -- 65
2020-10-04 15:00:00 24.1 16 Nordeste 36 Este 0.2 -- -- 65
2020-10-04 14:00:00 23.7 14 Nordeste 41 Este 0 -- -- 75
2020-10-04 13:00:00 22.9 17 Nordeste 33 Nordeste 0 -- -- 81
2020-10-04 12:00:00 22.2 17 Nordeste 34 Nordeste 0.2 -- -- 86
2020-10-04 11:00:00 22 14 Nordeste 28 Nordeste 0.2 -- -- 87
2020-10-04 10:00:00 21.9 12 Nordeste 30 Nordeste 0.2 -- -- 83
2020-10-04 09:00:00 22.2 10 Nordeste 26 Nordeste 0 -- -- 81
2020-10-04 08:00:00 22 12 Nordeste 26 Nordeste 0 -- -- 83
2020-10-04 07:00:00 21.2 13 Nordeste 23 Nordeste 0.6 -- -- 88
2020-10-04 06:00:00 21.7 11 Nordeste 20 Nordeste 0 -- -- 84
2020-10-04 05:00:00 21 12 Nordeste 23 Nordeste 1.6 -- -- 87
2020-10-04 04:00:00 21.6 16 Nordeste 29 Nordeste 0.6 -- -- 85
2020-10-04 03:00:00 21.8 10 Nordeste 32 Nordeste 0 -- -- 83
2020-10-04 02:00:00 21.1 13 Norte 22 Nordeste 0.8 -- -- 85
2020-10-04 01:00:00 21.5 15 Norte 23 Norte 0.4 -- -- 83
2020-10-04 00:00:00 22 13 Nordeste 21 Nordeste 0 -- -- 78
2020-10-03 23:00:00 22.4 11 Nordeste 22 Nordeste 0 -- -- 78
2020-10-03 22:00:00 22.4 14 Nordeste 23 Nordeste 0 -- -- 78
2020-10-03 21:00:00 22.7 12 Nordeste 23 Este 0 -- -- 76
2020-10-03 20:00:00 23 13 Nordeste 37 Norte 0 -- -- 75
2020-10-03 19:00:00 23.7 13 Nordeste 30 Nordeste 0 -- -- 73
2020-10-03 18:00:00 24 16 Nordeste 31 Nordeste 0 -- -- 72
2020-10-03 17:00:00 23.8 18 Nordeste 39 Nordeste 0.4 -- -- 75
2020-10-03 16:00:00 23 15 Nordeste 33 Norte 0.4 -- -- 82
2020-10-03 15:00:00 24.2 18 Norte 37 Norte 0 -- -- 75
2020-10-03 14:00:00 22.7 18 Norte 31 Norte 0.4 -- -- 81
2020-10-03 13:00:00 23.7 12 Nordeste 26 Nordeste 0.2 -- -- 76
2020-10-03 12:00:00 23.1 17 Nordeste 33 Norte 0.4 -- -- 78
2020-10-03 11:00:00 22.4 14 Norte 32 Norte 0 -- -- 78
2020-10-03 10:00:00 22.7 10 Nordeste 26 Este 0 -- -- 70
2020-10-03 09:00:00 20.7 16 Este 39 Norte 0.2 -- -- 78
2020-10-03 08:00:00 22.6 11 Nordeste 25 Norte 0 -- -- 67
2020-10-03 07:00:00 22.4 15 Nordeste 27 Nordeste 0 -- -- 69
2020-10-03 06:00:00 22.7 14 Nordeste 35 Nordeste 0 -- -- 65
2020-10-03 05:00:00 22.4 12 Nordeste 26 Nordeste 0 -- -- 74
2020-10-03 04:00:00 22.9 16 Nordeste 28 Nordeste 0 -- -- 69
2020-10-03 03:00:00 22.8 11 Nordeste 28 Nordeste 0 -- -- 65
2020-10-03 02:00:00 23.1 17 Nordeste 38 Norte 0 -- -- 60
2020-10-03 01:00:00 22.9 21 Nordeste 33 Nordeste 0 -- -- 65
2020-10-03 00:00:00 22.7 17 Nordeste 39 Nordeste 0 -- -- 67
2020-10-02 23:00:00 22.7 17 Nordeste 37 Nordeste 0 -- -- 71
2020-10-02 22:00:00 22.7 18 Nordeste 37 Nordeste 0 -- -- 72
2020-10-02 21:00:00 22.6 19 Nordeste 31 Este 0 -- -- 75
2020-10-02 20:00:00 22.4 15 Este 35 Nordeste 0 -- -- 76
2020-10-02 19:00:00 21.3 19 Nordeste 44 Norte 0.8 -- -- 81
2020-10-02 18:00:00 23.8 17 Nordeste 35 Nordeste 0 -- -- 67
2020-10-02 17:00:00 24.2 18 Nordeste 37 Nordeste 0 -- -- 66
2020-10-02 16:00:00 23.7 17 Nordeste 35 Norte 0 -- -- 70
2020-10-02 15:00:00 24.8 18 Nordeste 40 Este 0 -- -- 60
2020-10-02 14:00:00 24.8 20 Nordeste 36 Norte 0 -- -- 56
2020-10-02 13:00:00 24.9 14 Nordeste 35 Nordeste 0 -- -- 57
2020-10-02 12:00:00 23.8 18 Nordeste 36 Nordeste 0 -- -- 59
2020-10-02 11:00:00 23.6 18 Nordeste 33 Este 0 -- -- 55
2020-10-02 10:00:00 22.8 18 Nordeste 37 Norte 0 -- -- 58
2020-10-02 09:00:00 22.5 21 Nordeste 36 Nordeste 0 -- -- 60
2020-10-02 08:00:00 22.3 13 Nordeste 32 Nordeste 0 -- -- 62
2020-10-02 07:00:00 21.7 12 Nordeste 27 Este 0 -- -- 67
2020-10-02 06:00:00 21.4 15 Nordeste 36 Nordeste 0 -- -- 73
2020-10-02 05:00:00 20.8 15 Nordeste 33 Norte 0.2 -- -- 78
2020-10-02 04:00:00 22.2 23 Nordeste 39 Nordeste 0 -- -- 71
2020-10-02 03:00:00 22.3 18 Nordeste 34 Nordeste 0.2 -- -- 71
2020-10-02 02:00:00 22.4 18 Nordeste 40 Nordeste 0 -- -- 70
2020-10-02 01:00:00 23.3 17 Nordeste 36 Este 0 -- -- 60
2020-10-02 00:00:00 23 22 Nordeste 48 Nordeste 0 -- -- 69
2020-10-01 23:00:00 23 21 Nordeste 38 Nordeste 0 -- -- 70
2020-10-01 22:00:00 23.2 18 Nordeste 36 Nordeste 0 -- -- 66
2020-10-01 21:00:00 23.5 15 Nordeste 35 Nordeste 0 -- -- 63
2020-10-01 20:00:00 23.4 21 Nordeste 40 Este 0 -- -- 65
2020-10-01 19:00:00 24.2 24 Nordeste 42 Norte 0 -- -- 63
2020-10-01 18:00:00 24.8 21 Nordeste 44 Nordeste 0 -- -- 61
2020-10-01 17:00:00 25.1 23 Nordeste 40 Nordeste 0 -- -- 59
2020-10-01 16:00:00 25.6 20 Nordeste 41 Nordeste 0 -- -- 56
2020-10-01 15:00:00 25.7 22 Nordeste 41 Norte 0 -- -- 53
2020-10-01 14:00:00 25.7 19 Nordeste 44 Este 0 -- -- 55
2020-10-01 13:00:00 25.5 22 Nordeste 40 Norte 0 -- -- 50
2020-10-01 12:00:00 24.4 21 Nordeste 36 Nordeste 0 -- -- 62
2020-10-01 11:00:00 23.3 17 Nordeste 32 Nordeste 0 -- -- 65
2020-10-01 10:00:00 22.9 14 Nordeste 30 Nordeste 0 -- -- 69
2020-10-01 09:00:00 22.6 17 Nordeste 27 Nordeste 0 -- -- 69
2020-10-01 08:00:00 22.2 18 Nordeste 30 Nordeste 0 -- -- 70
2020-10-01 07:00:00 22.1 15 Nordeste 30 Este 0 -- -- 70
2020-10-01 06:00:00 22.2 13 Nordeste 26 Nordeste 0 -- -- 68
2020-10-01 05:00:00 22.6 13 Este 27 Nordeste 0 -- -- 62
2020-10-01 04:00:00 22.4 13 Nordeste 26 Este 0 -- -- 60
2020-10-01 03:00:00 22.3 13 Nordeste 29 Nordeste 0 -- -- 63
2020-10-01 02:00:00 22.2 15 Nordeste 30 Nordeste 0 -- -- 68
2020-10-01 01:00:00 22.5 19 Nordeste 32 Nordeste 0 -- -- 68
2020-10-01 00:00:00 22.8 17 Nordeste 30 Nordeste 0 -- -- 64